createdAt,value
2022-10-29T00:01:32.210Z,84.39
2022-10-29T00:04:04.048Z,84.19
2022-10-29T00:06:35.696Z,84.19
2022-10-29T00:09:14.568Z,84.22
2022-10-29T00:11:54.490Z,84.52
2022-10-29T00:14:29.352Z,84.23
2022-10-29T00:17:01.586Z,84.40
2022-10-29T00:19:33.203Z,84.44
2022-10-29T00:22:04.723Z,84.58
2022-10-29T00:24:36.334Z,84.90
2022-10-29T00:27:08.013Z,85.35
2022-10-29T00:29:39.583Z,84.96
2022-10-29T00:32:11.164Z,84.51
2022-10-29T00:34:42.823Z,85.31
2022-10-29T00:37:14.419Z,85.22
2022-10-29T00:39:45.996Z,84.73
2022-10-29T00:42:19.351Z,84.52
2022-10-29T00:44:51.328Z,84.31
2022-10-29T00:47:26.308Z,85.12
2022-10-29T00:50:02.445Z,84.65
2022-10-29T00:52:37.593Z,84.47
2022-10-29T00:55:15.340Z,84.87
2022-10-29T00:57:51.261Z,85.52
2022-10-29T01:00:24.184Z,85.46
2022-10-29T01:02:56.095Z,85.34
2022-10-29T01:05:29.143Z,85.74
2022-10-29T01:07:59.181Z,85.42
2022-10-29T01:10:41.774Z,85.70
2022-10-29T01:13:27.327Z,85.98
2022-10-29T01:16:07.598Z,85.80
2022-10-29T01:18:45.231Z,85.54
2022-10-29T01:21:42.687Z,85.39
2022-10-29T01:24:51.540Z,85.39
2022-10-29T01:27:40.765Z,85.50
2022-10-29T01:30:20.216Z,85.74
2022-10-29T01:33:05.616Z,85.36
2022-10-29T01:35:47.387Z,85.37
2022-10-29T01:38:27.641Z,85.75
2022-10-29T01:41:07.260Z,85.14
2022-10-29T01:43:45.730Z,85.24
2022-10-29T01:46:22.712Z,85.22
2022-10-29T01:48:59.064Z,85.42
2022-10-29T01:51:34.028Z,85.16
2022-10-29T01:54:11.176Z,85.16
2022-10-29T01:56:42.825Z,84.79
2022-10-29T01:59:28.697Z,84.96
2022-10-29T02:02:14.432Z,84.83
2022-10-29T02:05:12.553Z,84.81
2022-10-29T02:07:50.688Z,84.82
2022-10-29T02:10:27.802Z,84.90
2022-10-29T02:12:59.906Z,84.87
2022-10-29T02:15:36.466Z,85.02
2022-10-29T02:18:10.327Z,85.33
2022-10-29T02:20:46.884Z,86.02
2022-10-29T02:23:18.468Z,85.72
2022-10-29T02:25:50.159Z,85.77
2022-10-29T02:28:21.735Z,86.64
2022-10-29T02:30:53.349Z,86.37
2022-10-29T02:33:25.133Z,86.15
2022-10-29T02:35:56.720Z,86.36
2022-10-29T02:38:28.707Z,86.30
2022-10-29T02:41:00.235Z,86.88
2022-10-29T02:43:31.852Z,87.45
2022-10-29T02:46:20.879Z,87.17
2022-10-29T02:48:52.963Z,87.33
2022-10-29T02:51:24.846Z,87.97
2022-10-29T02:53:56.799Z,87.86
2022-10-29T02:56:28.560Z,87.48
2022-10-29T02:59:00.644Z,87.60
2022-10-29T03:01:32.450Z,88.29
2022-10-29T03:04:04.860Z,88.33
2022-10-29T03:06:36.577Z,88.54
2022-10-29T03:09:08.233Z,88.66
2022-10-29T03:11:39.793Z,88.82
2022-10-29T03:14:11.340Z,88.64
2022-10-29T03:16:43.015Z,88.52
2022-10-29T03:19:14.591Z,88.59
2022-10-29T03:21:46.187Z,88.66
2022-10-29T03:24:17.768Z,88.55
2022-10-29T03:26:49.422Z,88.58
2022-10-29T03:29:21.073Z,88.37
2022-10-29T03:31:52.824Z,88.34
2022-10-29T03:34:25.256Z,88.04
2022-10-29T03:36:56.783Z,88.34
2022-10-29T03:39:28.438Z,88.75
2022-10-29T03:42:00.456Z,88.56
2022-10-29T03:44:32.092Z,88.46
2022-10-29T03:47:03.644Z,88.61
2022-10-29T03:49:35.232Z,89.07
2022-10-29T03:52:07.113Z,89.09
2022-10-29T03:54:38.774Z,89.10
2022-10-29T03:57:10.470Z,89.10
2022-10-29T03:59:42.028Z,89.18
2022-10-29T04:02:13.926Z,89.24
2022-10-29T04:04:45.631Z,89.31
2022-10-29T04:07:17.236Z,89.51
2022-10-29T04:09:48.857Z,89.60
2022-10-29T04:12:20.611Z,89.84
2022-10-29T04:17:28.644Z,90.00
2022-10-29T04:20:00.367Z,90.01
2022-10-29T04:28:42.503Z,90.51
2022-10-29T04:31:09.470Z,90.45
2022-10-29T04:33:41.329Z,90.74
2022-10-29T04:36:13.465Z,90.87
2022-10-29T04:38:45.069Z,90.93
2022-10-29T04:41:16.669Z,91.08
2022-10-29T04:43:48.354Z,91.16
2022-10-29T04:46:19.989Z,91.25
2022-10-29T04:48:51.790Z,91.45
2022-10-29T04:51:26.201Z,91.41
2022-10-29T04:53:58.034Z,91.81
2022-10-29T04:56:30.111Z,91.94
2022-10-29T04:59:01.711Z,92.14
2022-10-29T05:04:05.443Z,92.77
2022-10-29T05:06:37.049Z,92.71
2022-10-29T05:09:08.820Z,93.04
2022-10-29T05:11:40.707Z,93.08
2022-10-29T05:14:12.259Z,93.35
2022-10-29T05:16:43.840Z,93.58
2022-10-29T05:19:15.444Z,93.84
2022-10-29T05:21:47.152Z,93.85
2022-10-29T05:24:18.988Z,93.80
2022-10-29T05:26:50.515Z,93.48
2022-10-29T05:29:22.096Z,93.29
2022-10-29T05:31:55.454Z,92.89
2022-10-29T05:34:27.172Z,92.52
2022-10-29T05:36:58.837Z,92.61
2022-10-29T05:39:30.531Z,93.52
2022-10-29T05:42:02.200Z,94.39
2022-10-29T05:44:33.847Z,95.01
2022-10-29T05:47:07.021Z,95.01
2022-10-29T05:49:39.063Z,95.18
2022-10-29T05:52:11.004Z,95.12
2022-10-29T05:54:42.769Z,94.37
2022-10-29T05:57:14.527Z,94.41
2022-10-29T05:59:46.094Z,95.26
2022-10-29T06:02:17.899Z,95.58
2022-10-29T06:04:49.574Z,95.60
2022-10-29T06:07:21.117Z,94.86
2022-10-29T06:09:52.751Z,95.38
2022-10-29T06:12:24.409Z,95.59
2022-10-29T06:14:55.947Z,95.45
2022-10-29T06:17:27.662Z,95.96
2022-10-29T06:19:59.633Z,95.38
2022-10-29T06:22:31.268Z,94.71
2022-10-29T06:25:02.894Z,94.41
2022-10-29T06:27:34.724Z,94.05
2022-10-29T06:30:08.391Z,94.02
2022-10-29T06:32:40.151Z,95.36
2022-10-29T06:35:12.271Z,95.13
2022-10-29T06:37:43.905Z,95.76
2022-10-29T06:40:15.718Z,96.17
2022-10-29T06:42:47.404Z,96.06
2022-10-29T06:45:19.259Z,95.96
2022-10-29T06:47:51.156Z,95.81
2022-10-29T06:50:23.347Z,96.39
2022-10-29T06:53:00.058Z,97.10
2022-10-29T06:55:33.485Z,97.43
2022-10-29T06:58:07.652Z,97.97
2022-10-29T07:00:39.479Z,98.22
2022-10-29T07:03:12.923Z,98.06
2022-10-29T07:05:44.768Z,98.18
2022-10-29T07:08:16.409Z,98.13
2022-10-29T07:10:51.461Z,98.36
2022-10-29T07:13:23.516Z,98.54
2022-10-29T07:15:55.330Z,98.88
2022-10-29T07:18:26.960Z,98.89
2022-10-29T07:20:58.758Z,99.11
2022-10-29T07:26:07.324Z,98.79
2022-10-29T07:28:38.952Z,97.94
2022-10-29T07:31:10.576Z,97.28
2022-10-29T07:33:42.316Z,97.52
2022-10-29T07:36:14.181Z,98.34
2022-10-29T07:38:46.064Z,99.28
2022-10-29T07:41:18.053Z,99.78
2022-10-29T07:43:50.991Z,99.93
2022-10-29T07:46:22.725Z,99.83
2022-10-29T07:48:54.226Z,99.94
2022-10-29T07:51:25.969Z,100.00
2022-10-29T07:53:57.564Z,99.68
2022-10-29T07:56:29.269Z,99.98
2022-10-29T07:59:01.001Z,100.00
2022-10-29T08:01:33.820Z,99.98
2022-10-29T08:04:05.812Z,99.99
2022-10-29T08:06:37.435Z,100.00
2022-10-29T08:09:09.329Z,100.00
2022-10-29T08:11:41.262Z,99.92
2022-10-29T08:14:14.965Z,100.00
2022-10-29T08:16:48.337Z,99.81
2022-10-29T08:19:20.001Z,99.69
2022-10-29T08:21:51.732Z,99.31
2022-10-29T08:24:23.767Z,99.20
2022-10-29T08:26:55.400Z,98.97
2022-10-29T08:29:27.033Z,98.50
2022-10-29T08:31:58.639Z,98.25
2022-10-29T08:34:31.056Z,97.92
2022-10-29T08:37:02.736Z,97.71
2022-10-29T08:39:34.348Z,97.25
2022-10-29T08:42:16.345Z,96.94
2022-10-29T08:45:06.631Z,96.81
2022-10-29T08:47:47.206Z,96.73
2022-10-29T08:50:25.627Z,96.22
2022-10-29T08:53:22.735Z,95.98
2022-10-29T08:55:49.539Z,95.85
2022-10-29T08:58:29.285Z,95.56
2022-10-29T09:01:01.464Z,95.27
2022-10-29T09:03:33.768Z,94.88
2022-10-29T09:06:12.372Z,94.56
2022-10-29T09:09:01.884Z,94.28
2022-10-29T09:11:48.652Z,93.93
2022-10-29T09:14:41.957Z,93.37
2022-10-29T09:17:22.030Z,92.89
2022-10-29T09:20:09.897Z,92.57
2022-10-29T09:22:52.101Z,91.97
2022-10-29T09:25:28.884Z,91.21
2022-10-29T09:28:15.937Z,90.47
2022-10-29T09:31:00.066Z,89.99
2022-10-29T09:33:32.995Z,89.43
2022-10-29T09:36:12.495Z,89.02
2022-10-29T09:38:53.788Z,88.45
2022-10-29T09:41:31.929Z,88.38
2022-10-29T09:44:12.240Z,88.33
2022-10-29T09:46:53.730Z,88.02
2022-10-29T09:49:40.606Z,87.30
2022-10-29T09:52:19.290Z,86.46
2022-10-29T09:54:52.560Z,86.09
2022-10-29T09:57:29.429Z,85.86
2022-10-29T10:00:03.582Z,85.43
2022-10-29T10:02:46.484Z,85.24
2022-10-29T10:05:28.615Z,84.72
2022-10-29T10:08:14.750Z,84.54
2022-10-29T10:10:57.556Z,83.77
2022-10-29T10:13:32.331Z,82.60
2022-10-29T10:16:06.052Z,82.40
2022-10-29T10:21:29.975Z,81.91
2022-10-29T10:24:30.508Z,81.31
2022-10-29T10:27:03.153Z,81.46
2022-10-29T10:29:34.849Z,81.16
2022-10-29T10:32:18.193Z,80.28
2022-10-29T10:34:49.937Z,80.37
2022-10-29T10:37:22.937Z,80.38
2022-10-29T10:40:01.611Z,79.47
2022-10-29T10:42:37.222Z,78.81
2022-10-29T10:45:23.957Z,77.80
2022-10-29T10:47:59.306Z,77.42
2022-10-29T10:50:33.969Z,76.75
2022-10-29T10:53:17.095Z,76.40
2022-10-29T10:55:52.767Z,76.77
2022-10-29T10:58:32.427Z,76.80
2022-10-29T11:01:11.172Z,77.39
2022-10-29T11:03:47.797Z,77.44
2022-10-29T11:06:22.716Z,76.74
2022-10-29T11:08:59.269Z,76.43
2022-10-29T11:11:36.061Z,74.77
2022-10-29T11:14:13.271Z,73.97
2022-10-29T11:16:49.908Z,73.33
2022-10-29T11:19:31.361Z,72.98
2022-10-29T11:22:16.648Z,72.09
2022-10-29T11:24:54.437Z,70.74
2022-10-29T11:27:36.687Z,70.05
2022-10-29T11:30:12.461Z,70.14
2022-10-29T11:32:56.039Z,70.31
2022-10-29T11:35:38.274Z,69.84
2022-10-29T11:38:17.805Z,69.96
2022-10-29T11:40:58.463Z,70.20
2022-10-29T11:43:30.108Z,70.54
2022-10-29T11:46:11.126Z,71.01
2022-10-29T11:48:56.460Z,71.24
2022-10-29T11:51:38.129Z,71.78
2022-10-29T11:54:27.464Z,72.58
2022-10-29T11:57:04.094Z,72.94
2022-10-29T11:59:51.869Z,73.18
2022-10-29T12:02:37.550Z,73.30
2022-10-29T12:05:18.506Z,73.17
2022-10-29T12:08:06.806Z,73.30
2022-10-29T12:10:51.852Z,73.32
2022-10-29T12:13:34.602Z,73.31
2022-10-29T12:16:19.354Z,73.44
2022-10-29T12:18:59.459Z,73.55
2022-10-29T12:21:41.277Z,73.73
2022-10-29T12:24:30.369Z,74.23
2022-10-29T12:27:10.811Z,74.85
2022-10-29T12:29:53.777Z,75.15
2022-10-29T12:32:32.061Z,75.17
2022-10-29T12:35:14.481Z,76.35
2022-10-29T12:38:02.093Z,82.27
2022-10-29T12:40:37.971Z,75.65
2022-10-29T12:43:17.366Z,76.83
2022-10-29T12:48:59.115Z,75.28
2022-10-29T12:51:41.860Z,73.93
2022-10-29T12:54:22.852Z,73.02
2022-10-29T12:56:56.583Z,73.89
2022-10-29T12:59:37.216Z,72.42
2022-10-29T13:02:46.246Z,72.49
2022-10-29T13:05:20.871Z,71.58
2022-10-29T13:08:20.114Z,73.41
2022-10-29T13:10:57.964Z,72.93
2022-10-29T13:13:56.956Z,72.94
2022-10-29T13:16:32.161Z,72.41
2022-10-29T13:19:15.267Z,72.66
2022-10-29T13:22:35.813Z,73.42
2022-10-29T13:25:42.335Z,72.26
2022-10-29T13:28:50.466Z,72.76
2022-10-29T13:31:47.816Z,71.30
2022-10-29T13:34:53.866Z,71.91
2022-10-29T13:38:03.491Z,72.68
2022-10-29T13:41:11.944Z,72.16
2022-10-29T13:43:54.497Z,71.86
2022-10-29T13:46:45.744Z,72.48
2022-10-29T13:49:24.696Z,72.42
2022-10-29T13:52:01.520Z,72.71
2022-10-29T13:54:42.024Z,73.47
2022-10-29T13:57:23.819Z,74.28
2022-10-29T14:00:04.238Z,73.77
2022-10-29T14:02:55.292Z,74.24
2022-10-29T14:05:35.958Z,73.58
2022-10-29T14:08:18.363Z,74.54
2022-10-29T14:10:59.781Z,74.82
2022-10-29T14:13:42.336Z,74.34
2022-10-29T14:16:20.418Z,74.83
2022-10-29T14:18:54.060Z,74.12
2022-10-29T14:21:28.941Z,74.22
2022-10-29T14:24:02.766Z,74.13
2022-10-29T14:26:37.029Z,74.72
2022-10-29T14:29:19.787Z,75.21
2022-10-29T14:32:08.084Z,75.18
2022-10-29T14:34:41.760Z,75.50
2022-10-29T14:37:23.180Z,75.54
2022-10-29T14:39:58.810Z,75.80
2022-10-29T14:42:34.296Z,76.18
2022-10-29T14:45:08.709Z,76.29
2022-10-29T14:47:40.635Z,76.38
2022-10-29T14:50:19.722Z,76.87
2022-10-29T14:52:54.213Z,77.35
2022-10-29T14:55:28.217Z,77.42
2022-10-29T14:58:05.889Z,77.50
2022-10-29T15:00:38.317Z,77.64
2022-10-29T15:03:19.429Z,77.68
2022-10-29T15:05:52.598Z,78.28
2022-10-29T15:08:29.405Z,78.63
2022-10-29T15:11:01.171Z,78.69
2022-10-29T15:13:35.959Z,78.84
2022-10-29T15:16:11.477Z,79.05
2022-10-29T15:18:47.863Z,78.96
2022-10-29T15:21:24.894Z,79.30
2022-10-29T15:24:00.485Z,79.46
2022-10-29T15:26:35.849Z,80.06
2022-10-29T15:29:12.631Z,80.56
2022-10-29T15:31:49.512Z,80.55
2022-10-29T15:34:24.323Z,80.15
2022-10-29T15:36:57.752Z,80.00
2022-10-29T15:39:53.345Z,80.33
2022-10-29T15:42:27.724Z,80.45
2022-10-29T15:45:29.326Z,80.92
2022-10-29T15:48:30.955Z,81.15
2022-10-29T15:51:04.176Z,81.26
2022-10-29T15:53:36.100Z,81.60
2022-10-29T15:56:12.036Z,82.35
2022-10-29T15:58:44.131Z,82.94
2022-10-29T16:01:17.769Z,83.45
2022-10-29T16:03:49.668Z,83.67
2022-10-29T16:06:21.371Z,84.54
2022-10-29T16:08:55.670Z,83.89
2022-10-29T16:11:28.139Z,85.02
2022-10-29T16:14:00.319Z,84.79
2022-10-29T16:16:33.313Z,83.89
2022-10-29T16:19:04.958Z,83.35
2022-10-29T16:21:37.331Z,84.08
2022-10-29T16:24:14.843Z,85.06
2022-10-29T16:26:46.515Z,85.02
2022-10-29T16:29:18.539Z,84.71
2022-10-29T16:31:50.274Z,84.68
2022-10-29T16:34:23.824Z,85.27
2022-10-29T16:36:58.356Z,85.64
2022-10-29T16:39:30.175Z,89.08
2022-10-29T16:42:01.848Z,95.43
2022-10-29T16:44:33.806Z,93.07
2022-10-29T16:47:07.628Z,87.10
2022-10-29T16:49:39.554Z,85.08
2022-10-29T16:52:16.135Z,83.25
2022-10-29T16:54:50.983Z,84.65
2022-10-29T16:57:23.731Z,85.78
2022-10-29T16:59:53.978Z,86.66
2022-10-29T17:02:25.693Z,87.50
2022-10-29T17:04:57.355Z,87.35
2022-10-29T17:07:29.007Z,87.98
2022-10-29T17:10:00.709Z,87.57
2022-10-29T17:12:32.933Z,87.36
2022-10-29T17:15:05.554Z,87.35
2022-10-29T17:17:39.895Z,86.82
2022-10-29T17:20:14.396Z,86.55
2022-10-29T17:22:46.394Z,86.53
2022-10-29T17:25:18.473Z,86.66
2022-10-29T17:27:50.297Z,86.47
2022-10-29T17:30:22.036Z,86.20
2022-10-29T17:32:53.791Z,86.39
2022-10-29T17:35:25.543Z,86.41
2022-10-29T17:37:57.313Z,86.24
2022-10-29T17:40:29.224Z,86.23
2022-10-29T17:43:00.962Z,86.31
2022-10-29T17:45:32.998Z,86.19
2022-10-29T17:48:04.900Z,86.20
2022-10-29T17:50:36.669Z,86.30
2022-10-29T17:53:08.401Z,86.51
2022-10-29T17:55:40.289Z,86.58
2022-10-29T17:58:17.690Z,86.46
2022-10-29T18:00:50.250Z,87.30
2022-10-29T18:03:25.660Z,88.28
2022-10-29T18:06:02.018Z,88.98
2022-10-29T18:08:35.945Z,90.02
2022-10-29T18:11:11.595Z,90.24
2022-10-29T18:13:46.028Z,89.69
2022-10-29T18:16:20.507Z,89.63
2022-10-29T18:19:01.162Z,89.79
2022-10-29T18:21:35.064Z,89.36
2022-10-29T18:24:09.657Z,90.43
2022-10-29T18:26:41.469Z,91.43
2022-10-29T18:29:14.921Z,90.97
2022-10-29T18:31:47.066Z,91.06
2022-10-29T18:34:18.884Z,91.69
2022-10-29T18:36:50.758Z,92.01
2022-10-29T18:39:24.017Z,92.48
2022-10-29T18:41:57.113Z,92.73
2022-10-29T18:44:29.143Z,92.61
2022-10-29T18:47:01.532Z,93.29
2022-10-29T18:49:33.646Z,93.48
2022-10-29T18:52:06.075Z,93.77
2022-10-29T18:54:38.033Z,94.11
2022-10-29T18:57:09.809Z,93.95
2022-10-29T18:59:41.693Z,93.57
2022-10-29T19:02:14.722Z,94.00
2022-10-29T19:04:46.644Z,94.01
2022-10-29T19:07:18.269Z,94.12
2022-10-29T19:09:50.414Z,94.99
2022-10-29T19:12:22.290Z,95.62
2022-10-29T19:14:55.008Z,95.72
2022-10-29T19:17:26.101Z,96.38
2022-10-29T19:19:59.441Z,96.49
2022-10-29T19:22:33.261Z,96.93
2022-10-29T19:25:05.235Z,96.81
2022-10-29T19:27:36.910Z,96.66
2022-10-29T19:30:11.504Z,96.63
2022-10-29T19:32:43.187Z,96.42
2022-10-29T19:35:15.095Z,96.11
2022-10-29T19:37:46.818Z,95.95
2022-10-29T19:40:18.877Z,95.89
2022-10-29T19:42:50.545Z,96.03
2022-10-29T19:45:22.228Z,97.11
2022-10-29T19:47:54.881Z,96.09
2022-10-29T19:50:27.060Z,95.94
2022-10-29T19:52:59.101Z,97.16
2022-10-29T19:55:31.309Z,96.88
2022-10-29T19:58:03.042Z,96.66
2022-10-29T20:00:35.431Z,97.36
2022-10-29T20:03:07.166Z,97.54
2022-10-29T20:05:39.230Z,96.78
2022-10-29T20:08:14.793Z,96.38
2022-10-29T20:10:54.432Z,95.85
2022-10-29T20:13:26.447Z,94.86
2022-10-29T20:15:58.558Z,95.34
2022-10-29T20:18:30.223Z,95.56
2022-10-29T20:21:02.014Z,97.00
2022-10-29T20:23:33.941Z,97.19
2022-10-29T20:26:06.274Z,97.50
2022-10-29T20:28:39.407Z,97.27
2022-10-29T20:31:27.820Z,97.23
2022-10-29T20:34:02.981Z,97.94
2022-10-29T20:36:36.827Z,97.13
2022-10-29T20:39:09.099Z,96.74
2022-10-29T20:41:40.652Z,96.84
2022-10-29T20:44:12.396Z,99.69
2022-10-29T20:46:44.097Z,100.00
2022-10-29T20:49:15.828Z,100.00
2022-10-29T20:51:47.710Z,92.18
2022-10-29T20:54:19.414Z,90.71
2022-10-29T20:56:51.106Z,91.62
2022-10-29T20:59:22.725Z,93.10
2022-10-29T21:01:55.004Z,94.48
2022-10-29T21:04:26.927Z,94.79
2022-10-29T21:06:58.730Z,94.84
2022-10-29T21:09:30.385Z,95.87
2022-10-29T21:12:02.886Z,97.35
2022-10-29T21:14:33.296Z,96.98
2022-10-29T21:17:05.735Z,96.17
2022-10-29T21:19:37.701Z,95.95
2022-10-29T21:22:09.397Z,95.74
2022-10-29T21:24:44.626Z,95.76
2022-10-29T21:27:17.760Z,97.60
2022-10-29T21:29:49.421Z,98.06
2022-10-29T21:32:21.134Z,98.00
2022-10-29T21:34:52.707Z,98.16
2022-10-29T21:37:24.385Z,98.67
2022-10-29T21:39:56.742Z,98.50
2022-10-29T21:42:30.784Z,99.11
2022-10-29T21:45:02.428Z,99.73
2022-10-29T21:47:34.261Z,99.33
2022-10-29T21:50:06.515Z,99.35
2022-10-29T21:52:39.185Z,99.63
2022-10-29T21:55:11.242Z,99.30
2022-10-29T21:57:45.250Z,99.10
2022-10-29T22:00:21.124Z,98.89
2022-10-29T22:02:52.829Z,99.75
2022-10-29T22:05:24.515Z,100.00
2022-10-29T22:07:58.467Z,99.83
2022-10-29T22:10:30.547Z,99.93
2022-10-29T22:13:02.885Z,100.00
2022-10-29T22:15:34.637Z,100.00
2022-10-29T22:18:06.366Z,100.00
2022-10-29T22:20:38.021Z,100.00
2022-10-29T22:23:09.852Z,100.00
2022-10-29T22:25:41.543Z,100.00
2022-10-29T22:28:13.149Z,100.00
2022-10-29T22:30:45.030Z,100.00
2022-10-29T22:33:16.983Z,100.00
2022-10-29T22:35:48.653Z,100.00
2022-10-29T22:38:20.300Z,100.00
2022-10-29T22:40:52.235Z,100.00
2022-10-29T22:43:24.486Z,100.00
2022-10-29T22:45:56.115Z,100.00
2022-10-29T22:48:27.800Z,100.00
2022-10-29T22:51:04.434Z,100.00
2022-10-29T22:53:36.839Z,100.00
2022-10-29T22:56:09.374Z,100.00
2022-10-29T22:58:41.079Z,100.00
2022-10-29T23:01:15.150Z,100.00
2022-10-29T23:03:47.729Z,100.00
2022-10-29T23:06:19.327Z,100.00
2022-10-29T23:08:53.564Z,100.00
2022-10-29T23:11:27.023Z,100.00
2022-10-29T23:14:00.766Z,100.00
2022-10-29T23:16:34.888Z,100.00
2022-10-29T23:19:08.096Z,100.00
2022-10-29T23:21:39.791Z,100.00
2022-10-29T23:24:12.185Z,100.00
2022-10-29T23:26:44.577Z,100.00
2022-10-29T23:29:16.208Z,100.00
2022-10-29T23:31:48.025Z,100.00
2022-10-29T23:34:19.742Z,100.00
2022-10-29T23:39:22.846Z,100.00
2022-10-29T23:41:54.484Z,100.00
2022-10-29T23:44:26.295Z,100.00
2022-10-29T23:46:57.892Z,100.00
2022-10-29T23:49:30.069Z,100.00
2022-10-29T23:52:01.679Z,100.00
2022-10-29T23:54:33.378Z,100.00
2022-10-29T23:57:05.158Z,100.00
2022-10-29T23:59:37.064Z,100.00
